sensor_id;sensor_type;location;lat;lon;timestamp;P1;durP1;ratioP1;P2;durP2;ratioP2
3487;SDS011;38546;48.170;11.724;2023-05-08T00:01:51;18.17;;;10.60;;
3487;SDS011;38546;48.170;11.724;2023-05-08T00:04:41;20.37;;;11.83;;
3487;SDS011;38546;48.170;11.724;2023-05-08T00:07:30;17.17;;;11.17;;
3487;SDS011;38546;48.170;11.724;2023-05-08T00:10:20;18.50;;;11.30;;
3487;SDS011;38546;48.170;11.724;2023-05-08T00:13:09;16.70;;;10.33;;
3487;SDS011;38546;48.170;11.724;2023-05-08T00:15:58;14.13;;;10.53;;
3487;SDS011;38546;48.170;11.724;2023-05-08T00:18:48;16.90;;;10.40;;
3487;SDS011;38546;48.170;11.724;2023-05-08T00:21:37;18.10;;;11.83;;
3487;SDS011;38546;48.170;11.724;2023-05-08T00:24:26;18.50;;;11.23;;
3487;SDS011;38546;48.170;11.724;2023-05-08T00:27:15;18.50;;;11.20;;
3487;SDS011;38546;48.170;11.724;2023-05-08T00:30:05;18.87;;;11.80;;
3487;SDS011;38546;48.170;11.724;2023-05-08T00:32:55;20.20;;;12.73;;
3487;SDS011;38546;48.170;11.724;2023-05-08T00:35:44;18.03;;;11.90;;
3487;SDS011;38546;48.170;11.724;2023-05-08T00:38:34;18.00;;;11.40;;
3487;SDS011;38546;48.170;11.724;2023-05-08T00:41:24;20.37;;;12.40;;
3487;SDS011;38546;48.170;11.724;2023-05-08T00:44:13;20.93;;;12.70;;
3487;SDS011;38546;48.170;11.724;2023-05-08T00:47:02;19.10;;;11.90;;
3487;SDS011;38546;48.170;11.724;2023-05-08T00:49:52;19.23;;;11.73;;
3487;SDS011;38546;48.170;11.724;2023-05-08T00:52:41;19.30;;;12.13;;
3487;SDS011;38546;48.170;11.724;2023-05-08T00:55:30;23.03;;;12.60;;
3487;SDS011;38546;48.170;11.724;2023-05-08T00:58:21;21.77;;;12.90;;
3487;SDS011;38546;48.170;11.724;2023-05-08T01:01:13;17.50;;;10.73;;
3487;SDS011;38546;48.170;11.724;2023-05-08T01:04:03;16.97;;;10.40;;
3487;SDS011;38546;48.170;11.724;2023-05-08T01:06:53;20.00;;;12.43;;
3487;SDS011;38546;48.170;11.724;2023-05-08T01:09:43;20.70;;;11.20;;
3487;SDS011;38546;48.170;11.724;2023-05-08T01:17:48;22.30;;;13.00;;
3487;SDS011;38546;48.170;11.724;2023-05-08T01:27:37;20.30;;;11.57;;
3487;SDS011;38546;48.170;11.724;2023-05-08T01:34:07;18.03;;;11.30;;
3487;SDS011;38546;48.170;11.724;2023-05-08T01:37:03;17.73;;;11.00;;
3487;SDS011;38546;48.170;11.724;2023-05-08T01:40:01;20.00;;;11.47;;
3487;SDS011;38546;48.170;11.724;2023-05-08T01:43:13;22.80;;;14.47;;
3487;SDS011;38546;48.170;11.724;2023-05-08T01:46:26;23.97;;;14.03;;
3487;SDS011;38546;48.170;11.724;2023-05-08T01:49:26;20.50;;;13.07;;
3487;SDS011;38546;48.170;11.724;2023-05-08T01:52:27;16.23;;;10.30;;
3487;SDS011;38546;48.170;11.724;2023-05-08T01:55:26;19.17;;;13.00;;
3487;SDS011;38546;48.170;11.724;2023-05-08T01:58:23;18.57;;;12.53;;
3487;SDS011;38546;48.170;11.724;2023-05-08T02:01:13;15.57;;;10.93;;
3487;SDS011;38546;48.170;11.724;2023-05-08T02:04:06;16.60;;;11.27;;
3487;SDS011;38546;48.170;11.724;2023-05-08T02:06:57;20.80;;;13.40;;
3487;SDS011;38546;48.170;11.724;2023-05-08T02:09:48;20.27;;;12.57;;
3487;SDS011;38546;48.170;11.724;2023-05-08T02:12:39;19.17;;;12.60;;
3487;SDS011;38546;48.170;11.724;2023-05-08T02:15:30;24.87;;;11.87;;
3487;SDS011;38546;48.170;11.724;2023-05-08T02:18:24;19.27;;;12.83;;
3487;SDS011;38546;48.170;11.724;2023-05-08T02:21:16;20.20;;;12.87;;
3487;SDS011;38546;48.170;11.724;2023-05-08T02:24:07;20.70;;;12.93;;
3487;SDS011;38546;48.170;11.724;2023-05-08T02:26:56;17.90;;;12.07;;
3487;SDS011;38546;48.170;11.724;2023-05-08T02:29:46;17.27;;;11.03;;
3487;SDS011;38546;48.170;11.724;2023-05-08T02:32:40;19.13;;;11.90;;
3487;SDS011;38546;48.170;11.724;2023-05-08T02:35:32;21.33;;;12.33;;
3487;SDS011;38546;48.170;11.724;2023-05-08T02:38:23;19.20;;;12.20;;
3487;SDS011;38546;48.170;11.724;2023-05-08T02:41:14;18.13;;;10.73;;
3487;SDS011;38546;48.170;11.724;2023-05-08T02:44:06;15.40;;;10.57;;
3487;SDS011;38546;48.170;11.724;2023-05-08T02:46:57;21.20;;;12.67;;
3487;SDS011;38546;48.170;11.724;2023-05-08T02:50:22;18.30;;;10.43;;
3487;SDS011;38546;48.170;11.724;2023-05-08T02:53:31;14.50;;;10.03;;
3487;SDS011;38546;48.170;11.724;2023-05-08T03:00:15;17.53;;;10.87;;
3487;SDS011;38546;48.170;11.724;2023-05-08T03:03:18;17.07;;;10.90;;
3487;SDS011;38546;48.170;11.724;2023-05-08T03:06:16;16.60;;;10.50;;
3487;SDS011;38546;48.170;11.724;2023-05-08T03:09:17;21.40;;;12.27;;
3487;SDS011;38546;48.170;11.724;2023-05-08T03:12:15;15.07;;;10.17;;
3487;SDS011;38546;48.170;11.724;2023-05-08T03:15:56;19.53;;;11.00;;
3487;SDS011;38546;48.170;11.724;2023-05-08T03:18:49;18.57;;;10.77;;
3487;SDS011;38546;48.170;11.724;2023-05-08T03:21:42;20.07;;;10.87;;
3487;SDS011;38546;48.170;11.724;2023-05-08T03:24:36;19.80;;;11.83;;
3487;SDS011;38546;48.170;11.724;2023-05-08T03:27:27;17.83;;;9.87;;
3487;SDS011;38546;48.170;11.724;2023-05-08T03:30:18;20.87;;;12.83;;
3487;SDS011;38546;48.170;11.724;2023-05-08T03:33:08;19.17;;;11.80;;
3487;SDS011;38546;48.170;11.724;2023-05-08T03:35:59;16.43;;;10.40;;
3487;SDS011;38546;48.170;11.724;2023-05-08T03:38:49;16.33;;;10.57;;
3487;SDS011;38546;48.170;11.724;2023-05-08T03:41:38;13.77;;;10.20;;
3487;SDS011;38546;48.170;11.724;2023-05-08T03:44:28;20.13;;;11.17;;
3487;SDS011;38546;48.170;11.724;2023-05-08T03:47:18;13.70;;;9.93;;
3487;SDS011;38546;48.170;11.724;2023-05-08T03:50:09;19.63;;;12.87;;
3487;SDS011;38546;48.170;11.724;2023-05-08T03:52:58;20.20;;;11.63;;
3487;SDS011;38546;48.170;11.724;2023-05-08T03:55:47;18.30;;;11.87;;
3487;SDS011;38546;48.170;11.724;2023-05-08T04:00:10;21.53;;;12.13;;
3487;SDS011;38546;48.170;11.724;2023-05-08T04:07:36;22.37;;;12.30;;
3487;SDS011;38546;48.170;11.724;2023-05-08T04:10:37;18.03;;;10.13;;
3487;SDS011;38546;48.170;11.724;2023-05-08T04:13:36;16.80;;;10.57;;
3487;SDS011;38546;48.170;11.724;2023-05-08T04:16:37;17.50;;;10.47;;
3487;SDS011;38546;48.170;11.724;2023-05-08T04:19:35;18.43;;;10.73;;
3487;SDS011;38546;48.170;11.724;2023-05-08T04:22:32;18.17;;;10.83;;
3487;SDS011;38546;48.170;11.724;2023-05-08T04:25:26;16.20;;;10.33;;
3487;SDS011;38546;48.170;11.724;2023-05-08T04:28:16;17.53;;;11.07;;
3487;SDS011;38546;48.170;11.724;2023-05-08T04:31:07;18.57;;;10.70;;
3487;SDS011;38546;48.170;11.724;2023-05-08T04:33:57;19.87;;;11.80;;
3487;SDS011;38546;48.170;11.724;2023-05-08T04:36:46;23.87;;;12.27;;
3487;SDS011;38546;48.170;11.724;2023-05-08T04:39:36;17.57;;;11.43;;
3487;SDS011;38546;48.170;11.724;2023-05-08T04:42:25;21.97;;;11.30;;
3487;SDS011;38546;48.170;11.724;2023-05-08T04:45:15;19.67;;;11.23;;
3487;SDS011;38546;48.170;11.724;2023-05-08T04:48:05;15.63;;;9.90;;
3487;SDS011;38546;48.170;11.724;2023-05-08T04:50:54;20.40;;;11.63;;
3487;SDS011;38546;48.170;11.724;2023-05-08T04:53:43;17.70;;;10.90;;
3487;SDS011;38546;48.170;11.724;2023-05-08T04:56:32;23.23;;;10.27;;
3487;SDS011;38546;48.170;11.724;2023-05-08T04:59:21;19.20;;;10.93;;
3487;SDS011;38546;48.170;11.724;2023-05-08T05:02:12;17.00;;;11.47;;
3487;SDS011;38546;48.170;11.724;2023-05-08T05:05:02;19.30;;;11.33;;
3487;SDS011;38546;48.170;11.724;2023-05-08T05:07:51;21.60;;;10.70;;
3487;SDS011;38546;48.170;11.724;2023-05-08T05:10:40;17.30;;;10.30;;
3487;SDS011;38546;48.170;11.724;2023-05-08T05:13:29;13.63;;;9.03;;
3487;SDS011;38546;48.170;11.724;2023-05-08T05:16:18;16.43;;;10.03;;
3487;SDS011;38546;48.170;11.724;2023-05-08T05:19:08;16.10;;;10.30;;
3487;SDS011;38546;48.170;11.724;2023-05-08T05:21:57;18.70;;;10.50;;
3487;SDS011;38546;48.170;11.724;2023-05-08T05:24:47;15.53;;;10.13;;
3487;SDS011;38546;48.170;11.724;2023-05-08T05:27:36;21.47;;;11.07;;
3487;SDS011;38546;48.170;11.724;2023-05-08T05:30:25;16.30;;;10.30;;
3487;SDS011;38546;48.170;11.724;2023-05-08T05:33:15;18.80;;;10.43;;
3487;SDS011;38546;48.170;11.724;2023-05-08T05:36:04;18.73;;;11.33;;
3487;SDS011;38546;48.170;11.724;2023-05-08T05:38:55;15.83;;;9.20;;
3487;SDS011;38546;48.170;11.724;2023-05-08T05:41:44;16.33;;;9.63;;
3487;SDS011;38546;48.170;11.724;2023-05-08T05:44:33;15.93;;;10.63;;
3487;SDS011;38546;48.170;11.724;2023-05-08T05:47:22;19.50;;;11.00;;
3487;SDS011;38546;48.170;11.724;2023-05-08T05:50:12;19.53;;;10.30;;
3487;SDS011;38546;48.170;11.724;2023-05-08T05:53:01;17.60;;;10.43;;
3487;SDS011;38546;48.170;11.724;2023-05-08T05:55:51;14.20;;;9.83;;
3487;SDS011;38546;48.170;11.724;2023-05-08T05:58:40;14.23;;;9.00;;
3487;SDS011;38546;48.170;11.724;2023-05-08T06:01:32;17.00;;;9.97;;
3487;SDS011;38546;48.170;11.724;2023-05-08T06:04:21;14.60;;;9.60;;
3487;SDS011;38546;48.170;11.724;2023-05-08T06:07:10;13.40;;;8.90;;
3487;SDS011;38546;48.170;11.724;2023-05-08T06:09:59;14.17;;;10.67;;
3487;SDS011;38546;48.170;11.724;2023-05-08T06:12:49;16.17;;;9.83;;
3487;SDS011;38546;48.170;11.724;2023-05-08T06:15:38;16.40;;;10.47;;
3487;SDS011;38546;48.170;11.724;2023-05-08T06:18:27;15.60;;;11.00;;
3487;SDS011;38546;48.170;11.724;2023-05-08T06:21:16;22.83;;;11.13;;
3487;SDS011;38546;48.170;11.724;2023-05-08T06:24:06;16.53;;;10.43;;
3487;SDS011;38546;48.170;11.724;2023-05-08T06:26:55;22.47;;;11.60;;
3487;SDS011;38546;48.170;11.724;2023-05-08T06:29:45;15.07;;;10.30;;
3487;SDS011;38546;48.170;11.724;2023-05-08T06:32:38;15.60;;;9.97;;
3487;SDS011;38546;48.170;11.724;2023-05-08T06:35:27;13.60;;;9.60;;
3487;SDS011;38546;48.170;11.724;2023-05-08T06:38:16;16.30;;;10.80;;
3487;SDS011;38546;48.170;11.724;2023-05-08T06:41:06;22.70;;;13.07;;
3487;SDS011;38546;48.170;11.724;2023-05-08T06:43:56;14.97;;;9.60;;
3487;SDS011;38546;48.170;11.724;2023-05-08T06:46:45;16.27;;;11.83;;
3487;SDS011;38546;48.170;11.724;2023-05-08T06:49:34;17.93;;;10.93;;
3487;SDS011;38546;48.170;11.724;2023-05-08T06:52:24;18.47;;;11.30;;
3487;SDS011;38546;48.170;11.724;2023-05-08T06:55:13;20.90;;;11.60;;
3487;SDS011;38546;48.170;11.724;2023-05-08T06:58:03;22.73;;;13.00;;
3487;SDS011;38546;48.170;11.724;2023-05-08T07:00:52;16.50;;;10.50;;
3487;SDS011;38546;48.170;11.724;2023-05-08T07:03:41;18.13;;;12.03;;
3487;SDS011;38546;48.170;11.724;2023-05-08T07:06:30;17.10;;;11.20;;
3487;SDS011;38546;48.170;11.724;2023-05-08T07:09:19;17.33;;;10.60;;
3487;SDS011;38546;48.170;11.724;2023-05-08T07:12:09;22.40;;;11.03;;
3487;SDS011;38546;48.170;11.724;2023-05-08T07:14:58;16.87;;;10.60;;
3487;SDS011;38546;48.170;11.724;2023-05-08T07:17:47;22.90;;;12.63;;
3487;SDS011;38546;48.170;11.724;2023-05-08T07:20:36;16.77;;;11.70;;
3487;SDS011;38546;48.170;11.724;2023-05-08T07:23:25;18.73;;;11.90;;
3487;SDS011;38546;48.170;11.724;2023-05-08T07:26:15;18.20;;;10.77;;
3487;SDS011;38546;48.170;11.724;2023-05-08T07:29:03;19.80;;;10.77;;
3487;SDS011;38546;48.170;11.724;2023-05-08T07:31:53;22.60;;;11.63;;
3487;SDS011;38546;48.170;11.724;2023-05-08T07:34:42;19.70;;;12.30;;
3487;SDS011;38546;48.170;11.724;2023-05-08T07:37:31;19.20;;;11.73;;
3487;SDS011;38546;48.170;11.724;2023-05-08T07:40:21;20.33;;;11.73;;
3487;SDS011;38546;48.170;11.724;2023-05-08T07:43:10;14.60;;;10.07;;
3487;SDS011;38546;48.170;11.724;2023-05-08T07:46:00;17.97;;;11.00;;
3487;SDS011;38546;48.170;11.724;2023-05-08T07:48:49;16.80;;;10.37;;
3487;SDS011;38546;48.170;11.724;2023-05-08T07:51:39;13.73;;;9.93;;
3487;SDS011;38546;48.170;11.724;2023-05-08T07:54:28;17.80;;;11.70;;
3487;SDS011;38546;48.170;11.724;2023-05-08T07:57:18;18.20;;;11.43;;
3487;SDS011;38546;48.170;11.724;2023-05-08T08:00:10;12.60;;;9.77;;
3487;SDS011;38546;48.170;11.724;2023-05-08T08:03:02;17.10;;;11.47;;
3487;SDS011;38546;48.170;11.724;2023-05-08T08:05:52;19.73;;;11.83;;
3487;SDS011;38546;48.170;11.724;2023-05-08T08:08:41;19.70;;;11.33;;
3487;SDS011;38546;48.170;11.724;2023-05-08T08:11:30;21.63;;;11.63;;
3487;SDS011;38546;48.170;11.724;2023-05-08T08:14:20;17.63;;;11.40;;
3487;SDS011;38546;48.170;11.724;2023-05-08T08:17:09;18.60;;;11.93;;
3487;SDS011;38546;48.170;11.724;2023-05-08T08:19:58;19.93;;;11.77;;
3487;SDS011;38546;48.170;11.724;2023-05-08T08:22:48;20.20;;;12.40;;
3487;SDS011;38546;48.170;11.724;2023-05-08T08:25:37;19.60;;;11.90;;
3487;SDS011;38546;48.170;11.724;2023-05-08T08:28:26;20.77;;;12.43;;
3487;SDS011;38546;48.170;11.724;2023-05-08T08:31:16;17.77;;;11.60;;
3487;SDS011;38546;48.170;11.724;2023-05-08T08:34:07;22.30;;;13.20;;
3487;SDS011;38546;48.170;11.724;2023-05-08T08:36:56;19.23;;;11.93;;
3487;SDS011;38546;48.170;11.724;2023-05-08T08:39:45;19.47;;;11.50;;
3487;SDS011;38546;48.170;11.724;2023-05-08T08:42:35;21.57;;;13.03;;
3487;SDS011;38546;48.170;11.724;2023-05-08T08:45:25;24.93;;;14.60;;
3487;SDS011;38546;48.170;11.724;2023-05-08T08:48:14;20.90;;;13.67;;
3487;SDS011;38546;48.170;11.724;2023-05-08T08:51:05;22.23;;;12.53;;
3487;SDS011;38546;48.170;11.724;2023-05-08T08:57:22;17.30;;;11.30;;
3487;SDS011;38546;48.170;11.724;2023-05-08T09:00:14;15.53;;;10.27;;
3487;SDS011;38546;48.170;11.724;2023-05-08T09:03:05;20.83;;;12.07;;
3487;SDS011;38546;48.170;11.724;2023-05-08T09:05:58;21.90;;;13.83;;
3487;SDS011;38546;48.170;11.724;2023-05-08T09:08:51;22.07;;;12.70;;
3487;SDS011;38546;48.170;11.724;2023-05-08T09:11:44;16.30;;;12.43;;
3487;SDS011;38546;48.170;11.724;2023-05-08T09:14:34;23.77;;;12.93;;
3487;SDS011;38546;48.170;11.724;2023-05-08T09:17:23;20.57;;;12.60;;
3487;SDS011;38546;48.170;11.724;2023-05-08T09:20:13;18.10;;;10.97;;
3487;SDS011;38546;48.170;11.724;2023-05-08T09:23:03;22.83;;;12.63;;
3487;SDS011;38546;48.170;11.724;2023-05-08T09:25:52;19.30;;;11.70;;
3487;SDS011;38546;48.170;11.724;2023-05-08T09:28:42;20.10;;;12.80;;
3487;SDS011;38546;48.170;11.724;2023-05-08T09:31:34;18.23;;;12.23;;
3487;SDS011;38546;48.170;11.724;2023-05-08T09:34:30;19.83;;;13.33;;
3487;SDS011;38546;48.170;11.724;2023-05-08T09:37:20;20.27;;;13.43;;
3487;SDS011;38546;48.170;11.724;2023-05-08T09:40:14;19.13;;;12.07;;
3487;SDS011;38546;48.170;11.724;2023-05-08T09:43:11;21.60;;;13.70;;
3487;SDS011;38546;48.170;11.724;2023-05-08T09:46:19;20.43;;;12.60;;
3487;SDS011;38546;48.170;11.724;2023-05-08T09:49:15;12.67;;;9.80;;
3487;SDS011;38546;48.170;11.724;2023-05-08T09:52:06;16.60;;;12.00;;
3487;SDS011;38546;48.170;11.724;2023-05-08T09:55:13;21.60;;;14.17;;
3487;SDS011;38546;48.170;11.724;2023-05-08T09:58:04;23.70;;;12.40;;
3487;SDS011;38546;48.170;11.724;2023-05-08T10:00:53;21.00;;;13.60;;
3487;SDS011;38546;48.170;11.724;2023-05-08T10:03:49;19.20;;;12.27;;
3487;SDS011;38546;48.170;11.724;2023-05-08T10:06:39;18.47;;;12.53;;
3487;SDS011;38546;48.170;11.724;2023-05-08T10:09:28;24.50;;;14.80;;
3487;SDS011;38546;48.170;11.724;2023-05-08T10:12:18;23.03;;;14.10;;
3487;SDS011;38546;48.170;11.724;2023-05-08T10:15:09;19.63;;;13.87;;
3487;SDS011;38546;48.170;11.724;2023-05-08T10:20:58;22.77;;;15.23;;
3487;SDS011;38546;48.170;11.724;2023-05-08T10:23:50;22.90;;;15.23;;
3487;SDS011;38546;48.170;11.724;2023-05-08T10:26:55;22.87;;;13.77;;
3487;SDS011;38546;48.170;11.724;2023-05-08T10:30:12;26.03;;;16.70;;
3487;SDS011;38546;48.170;11.724;2023-05-08T10:33:06;24.50;;;16.73;;
3487;SDS011;38546;48.170;11.724;2023-05-08T10:35:58;21.73;;;15.10;;
3487;SDS011;38546;48.170;11.724;2023-05-08T10:38:49;21.17;;;14.43;;
3487;SDS011;38546;48.170;11.724;2023-05-08T10:41:39;24.20;;;15.50;;
3487;SDS011;38546;48.170;11.724;2023-05-08T10:44:29;18.90;;;13.50;;
3487;SDS011;38546;48.170;11.724;2023-05-08T10:47:31;27.20;;;17.50;;
3487;SDS011;38546;48.170;11.724;2023-05-08T10:54:07;20.73;;;14.57;;
3487;SDS011;38546;48.170;11.724;2023-05-08T10:57:09;19.33;;;14.83;;
3487;SDS011;38546;48.170;11.724;2023-05-08T10:59:59;28.90;;;17.13;;
3487;SDS011;38546;48.170;11.724;2023-05-08T11:02:49;27.57;;;16.50;;
3487;SDS011;38546;48.170;11.724;2023-05-08T11:05:45;28.67;;;17.30;;
3487;SDS011;38546;48.170;11.724;2023-05-08T11:08:42;24.20;;;15.90;;
3487;SDS011;38546;48.170;11.724;2023-05-08T11:11:37;23.97;;;16.07;;
3487;SDS011;38546;48.170;11.724;2023-05-08T11:14:27;29.40;;;18.03;;
3487;SDS011;38546;48.170;11.724;2023-05-08T11:17:21;28.13;;;17.17;;
3487;SDS011;38546;48.170;11.724;2023-05-08T11:20:12;30.40;;;17.07;;
3487;SDS011;38546;48.170;11.724;2023-05-08T11:23:01;25.50;;;18.00;;
3487;SDS011;38546;48.170;11.724;2023-05-08T11:26:13;26.80;;;18.37;;
3487;SDS011;38546;48.170;11.724;2023-05-08T11:29:05;25.30;;;16.90;;
3487;SDS011;38546;48.170;11.724;2023-05-08T11:32:05;28.83;;;17.00;;
3487;SDS011;38546;48.170;11.724;2023-05-08T11:34:55;22.77;;;15.63;;
3487;SDS011;38546;48.170;11.724;2023-05-08T11:38:07;20.90;;;15.07;;
3487;SDS011;38546;48.170;11.724;2023-05-08T11:41:20;27.70;;;18.57;;
3487;SDS011;38546;48.170;11.724;2023-05-08T11:44:17;23.87;;;17.60;;
3487;SDS011;38546;48.170;11.724;2023-05-08T11:47:08;30.37;;;17.07;;
3487;SDS011;38546;48.170;11.724;2023-05-08T11:50:04;28.77;;;17.83;;
3487;SDS011;38546;48.170;11.724;2023-05-08T11:52:56;28.70;;;17.80;;
3487;SDS011;38546;48.170;11.724;2023-05-08T11:55:48;25.30;;;17.40;;
3487;SDS011;38546;48.170;11.724;2023-05-08T11:58:40;23.80;;;15.60;;
3487;SDS011;38546;48.170;11.724;2023-05-08T12:01:29;23.87;;;16.50;;
3487;SDS011;38546;48.170;11.724;2023-05-08T12:04:20;31.80;;;17.43;;
3487;SDS011;38546;48.170;11.724;2023-05-08T12:07:09;30.80;;;19.17;;
3487;SDS011;38546;48.170;11.724;2023-05-08T12:09:59;23.40;;;14.97;;
3487;SDS011;38546;48.170;11.724;2023-05-08T12:12:50;22.60;;;15.77;;
3487;SDS011;38546;48.170;11.724;2023-05-08T12:15:38;29.33;;;17.60;;
3487;SDS011;38546;48.170;11.724;2023-05-08T12:18:28;30.37;;;18.30;;
3487;SDS011;38546;48.170;11.724;2023-05-08T12:21:18;27.07;;;17.93;;
3487;SDS011;38546;48.170;11.724;2023-05-08T12:24:11;27.30;;;18.20;;
3487;SDS011;38546;48.170;11.724;2023-05-08T12:27:01;31.97;;;19.17;;
3487;SDS011;38546;48.170;11.724;2023-05-08T12:29:51;32.77;;;19.37;;
3487;SDS011;38546;48.170;11.724;2023-05-08T12:32:41;28.33;;;18.00;;
3487;SDS011;38546;48.170;11.724;2023-05-08T12:35:31;26.57;;;16.80;;
3487;SDS011;38546;48.170;11.724;2023-05-08T12:38:24;33.60;;;17.30;;
3487;SDS011;38546;48.170;11.724;2023-05-08T12:41:21;34.30;;;17.90;;
3487;SDS011;38546;48.170;11.724;2023-05-08T12:44:24;25.07;;;15.53;;
3487;SDS011;38546;48.170;11.724;2023-05-08T12:47:14;25.50;;;16.67;;
3487;SDS011;38546;48.170;11.724;2023-05-08T12:50:08;30.23;;;18.57;;
3487;SDS011;38546;48.170;11.724;2023-05-08T12:53:04;26.17;;;17.63;;
3487;SDS011;38546;48.170;11.724;2023-05-08T12:55:56;27.57;;;18.00;;
3487;SDS011;38546;48.170;11.724;2023-05-08T12:58:49;22.63;;;15.63;;
3487;SDS011;38546;48.170;11.724;2023-05-08T13:01:38;27.77;;;16.83;;
3487;SDS011;38546;48.170;11.724;2023-05-08T13:04:28;28.30;;;17.60;;
3487;SDS011;38546;48.170;11.724;2023-05-08T13:07:17;25.17;;;15.77;;
3487;SDS011;38546;48.170;11.724;2023-05-08T13:10:07;28.87;;;16.83;;
3487;SDS011;38546;48.170;11.724;2023-05-08T13:12:56;25.40;;;15.63;;
3487;SDS011;38546;48.170;11.724;2023-05-08T13:15:45;24.93;;;16.83;;
3487;SDS011;38546;48.170;11.724;2023-05-08T13:18:36;23.63;;;16.37;;
3487;SDS011;38546;48.170;11.724;2023-05-08T13:21:25;28.90;;;17.00;;
3487;SDS011;38546;48.170;11.724;2023-05-08T13:24:15;24.07;;;16.00;;
3487;SDS011;38546;48.170;11.724;2023-05-08T13:27:04;23.77;;;15.20;;
3487;SDS011;38546;48.170;11.724;2023-05-08T13:29:53;23.77;;;16.47;;
3487;SDS011;38546;48.170;11.724;2023-05-08T13:32:43;20.23;;;14.93;;
3487;SDS011;38546;48.170;11.724;2023-05-08T13:35:32;24.10;;;14.77;;
3487;SDS011;38546;48.170;11.724;2023-05-08T13:38:22;22.57;;;14.10;;
3487;SDS011;38546;48.170;11.724;2023-05-08T13:41:11;21.80;;;14.57;;
3487;SDS011;38546;48.170;11.724;2023-05-08T13:44:00;19.97;;;12.93;;
3487;SDS011;38546;48.170;11.724;2023-05-08T13:46:49;18.30;;;12.97;;
3487;SDS011;38546;48.170;11.724;2023-05-08T13:49:38;28.73;;;14.43;;
3487;SDS011;38546;48.170;11.724;2023-05-08T13:52:27;19.80;;;13.80;;
3487;SDS011;38546;48.170;11.724;2023-05-08T13:55:17;19.30;;;12.40;;
3487;SDS011;38546;48.170;11.724;2023-05-08T13:58:09;15.83;;;11.90;;
3487;SDS011;38546;48.170;11.724;2023-05-08T14:00:58;21.83;;;13.90;;
3487;SDS011;38546;48.170;11.724;2023-05-08T14:03:48;20.27;;;12.30;;
3487;SDS011;38546;48.170;11.724;2023-05-08T14:06:37;20.90;;;13.80;;
3487;SDS011;38546;48.170;11.724;2023-05-08T14:09:27;14.97;;;10.83;;
3487;SDS011;38546;48.170;11.724;2023-05-08T14:12:16;18.40;;;12.20;;
3487;SDS011;38546;48.170;11.724;2023-05-08T14:15:05;22.87;;;14.47;;
3487;SDS011;38546;48.170;11.724;2023-05-08T14:17:59;18.90;;;11.23;;
3487;SDS011;38546;48.170;11.724;2023-05-08T14:20:48;17.73;;;12.57;;
3487;SDS011;38546;48.170;11.724;2023-05-08T14:23:38;18.20;;;11.23;;
3487;SDS011;38546;48.170;11.724;2023-05-08T14:26:27;21.47;;;13.63;;
3487;SDS011;38546;48.170;11.724;2023-05-08T14:29:16;22.57;;;14.50;;
3487;SDS011;38546;48.170;11.724;2023-05-08T14:32:08;23.07;;;13.30;;
3487;SDS011;38546;48.170;11.724;2023-05-08T14:34:59;16.67;;;11.90;;
3487;SDS011;38546;48.170;11.724;2023-05-08T14:37:48;21.47;;;14.23;;
3487;SDS011;38546;48.170;11.724;2023-05-08T14:40:37;16.97;;;11.67;;
3487;SDS011;38546;48.170;11.724;2023-05-08T14:43:27;21.50;;;13.40;;
3487;SDS011;38546;48.170;11.724;2023-05-08T14:46:16;23.00;;;15.13;;
3487;SDS011;38546;48.170;11.724;2023-05-08T14:49:05;17.80;;;12.97;;
3487;SDS011;38546;48.170;11.724;2023-05-08T14:51:54;16.10;;;11.40;;
3487;SDS011;38546;48.170;11.724;2023-05-08T14:54:44;16.03;;;10.93;;
3487;SDS011;38546;48.170;11.724;2023-05-08T14:57:35;17.40;;;12.37;;
3487;SDS011;38546;48.170;11.724;2023-05-08T15:00:24;17.90;;;12.43;;
3487;SDS011;38546;48.170;11.724;2023-05-08T15:03:14;16.00;;;11.20;;
3487;SDS011;38546;48.170;11.724;2023-05-08T15:06:03;23.40;;;14.30;;
3487;SDS011;38546;48.170;11.724;2023-05-08T15:08:53;24.10;;;15.80;;
3487;SDS011;38546;48.170;11.724;2023-05-08T15:11:42;23.30;;;15.50;;
3487;SDS011;38546;48.170;11.724;2023-05-08T15:14:32;19.17;;;12.83;;
3487;SDS011;38546;48.170;11.724;2023-05-08T15:17:21;17.13;;;12.00;;
3487;SDS011;38546;48.170;11.724;2023-05-08T15:20:10;23.17;;;13.83;;
3487;SDS011;38546;48.170;11.724;2023-05-08T15:23:00;23.10;;;14.23;;
3487;SDS011;38546;48.170;11.724;2023-05-08T15:25:49;22.27;;;14.10;;
3487;SDS011;38546;48.170;11.724;2023-05-08T15:28:38;22.90;;;13.43;;
3487;SDS011;38546;48.170;11.724;2023-05-08T15:31:28;22.13;;;14.23;;
3487;SDS011;38546;48.170;11.724;2023-05-08T15:34:18;18.13;;;12.60;;
3487;SDS011;38546;48.170;11.724;2023-05-08T15:37:07;16.80;;;12.00;;
3487;SDS011;38546;48.170;11.724;2023-05-08T15:39:56;18.50;;;12.60;;
3487;SDS011;38546;48.170;11.724;2023-05-08T15:42:46;18.27;;;12.23;;
3487;SDS011;38546;48.170;11.724;2023-05-08T15:45:35;22.20;;;14.10;;
3487;SDS011;38546;48.170;11.724;2023-05-08T15:48:23;19.03;;;13.50;;
3487;SDS011;38546;48.170;11.724;2023-05-08T15:51:13;18.83;;;12.27;;
3487;SDS011;38546;48.170;11.724;2023-05-08T15:54:02;18.57;;;12.50;;
3487;SDS011;38546;48.170;11.724;2023-05-08T15:56:51;19.17;;;12.70;;
3487;SDS011;38546;48.170;11.724;2023-05-08T15:59:40;19.63;;;13.10;;
3487;SDS011;38546;48.170;11.724;2023-05-08T16:02:30;19.97;;;13.40;;
3487;SDS011;38546;48.170;11.724;2023-05-08T16:05:19;21.83;;;14.37;;
3487;SDS011;38546;48.170;11.724;2023-05-08T16:08:08;22.33;;;13.00;;
3487;SDS011;38546;48.170;11.724;2023-05-08T16:11:00;22.10;;;13.67;;
3487;SDS011;38546;48.170;11.724;2023-05-08T16:13:49;19.27;;;13.40;;
3487;SDS011;38546;48.170;11.724;2023-05-08T16:16:39;21.93;;;14.30;;
3487;SDS011;38546;48.170;11.724;2023-05-08T16:19:28;18.23;;;12.33;;
3487;SDS011;38546;48.170;11.724;2023-05-08T16:22:17;22.10;;;14.87;;
3487;SDS011;38546;48.170;11.724;2023-05-08T16:25:06;20.50;;;13.60;;
3487;SDS011;38546;48.170;11.724;2023-05-08T16:27:56;22.87;;;14.77;;
3487;SDS011;38546;48.170;11.724;2023-05-08T16:30:46;21.83;;;13.97;;
3487;SDS011;38546;48.170;11.724;2023-05-08T16:33:35;25.97;;;16.57;;
3487;SDS011;38546;48.170;11.724;2023-05-08T16:36:24;22.73;;;13.80;;
3487;SDS011;38546;48.170;11.724;2023-05-08T16:39:14;19.70;;;13.63;;
3487;SDS011;38546;48.170;11.724;2023-05-08T16:42:04;23.93;;;14.87;;
3487;SDS011;38546;48.170;11.724;2023-05-08T16:44:54;22.30;;;13.50;;
3487;SDS011;38546;48.170;11.724;2023-05-08T16:47:44;23.20;;;13.77;;
3487;SDS011;38546;48.170;11.724;2023-05-08T16:50:33;18.97;;;14.30;;
3487;SDS011;38546;48.170;11.724;2023-05-08T16:53:22;21.10;;;13.53;;
3487;SDS011;38546;48.170;11.724;2023-05-08T16:56:14;22.93;;;13.93;;
3487;SDS011;38546;48.170;11.724;2023-05-08T16:59:04;20.83;;;13.60;;
3487;SDS011;38546;48.170;11.724;2023-05-08T17:01:54;20.07;;;14.90;;
3487;SDS011;38546;48.170;11.724;2023-05-08T17:04:44;21.57;;;14.10;;
3487;SDS011;38546;48.170;11.724;2023-05-08T17:07:34;19.20;;;12.33;;
3487;SDS011;38546;48.170;11.724;2023-05-08T17:10:23;22.63;;;13.90;;
3487;SDS011;38546;48.170;11.724;2023-05-08T17:13:12;21.50;;;13.57;;
3487;SDS011;38546;48.170;11.724;2023-05-08T17:16:01;22.97;;;13.10;;
3487;SDS011;38546;48.170;11.724;2023-05-08T17:18:51;21.93;;;13.57;;